Terminal Aerodrome Forecast
Issued by NWS

Home | Current Version | Previous Version | Text Only | Print | Product List | Glossary On
Versions: 1 2 3 4 5 6 7 8 9 10 11 12 13 14 15
000
FTUS43 KIND 251700
TAFBMG
TAF
KBMG 251725Z 2518/2618 20014G24KT P6SM VCSH OVC025
     FM252200 20014G24KT P6SM BKN035
     FM260200 18007KT P6SM BKN035
     FM260600 17007KT 3SM BR OVC015
     FM261330 18012G20KT P6SM BKN035=

USA.gov is the U.S. government's official web portal to all federal, state and local government web resources and services.